Absarokee, MT

9:23 AM MDT on October 24, 2014 (GMT -0600)
North Davidson Ave., Absarokee | Change Station
CLOSE
Current Station
Personal Weather Station
Location: Absarokee, MT
Elevation: 4042 ft
Nearby Weather Stations

Elev 4042 ft 45.52 °N, 109.44 °W | Updated 2 seconds ago

Overcast
Overcast
54.7 °F
Feels Like 54.7 °F
N
0.7
Wind Variable Wind from North
Gusts 3.8 mph

Today
High -- | Low -- °F
--% Chance of Precip.
Yesterday
High -- | Low -- °F
Precip. -- in
7:46 AM 6:16 PM
New Moon, 1% visible
Pressure 30.00 in
Visibility 10.0 miles
Clouds Mostly Cloudy 10000 ft
Dew Point 34 °F
Humidity 46%
Rainfall 0.00 in
Snow Depth 0 in
UV 0 out of 12
Pollen 1.70 out of 12
Air Quality Not available.
Flu Activity No Activity
METAR KBIL 241453Z 18003KT 10SM BKN100 12/01 A3003 RMK AO2 SLP158 T01170011 51021

More Conditions Fewer Conditions

Pressure 30.00 in
Visibility 10.0 miles
Clouds Mostly Cloudy 10000 ft
Dew Point 34 °F
Humidity 46%
Rainfall 0.00 in
Snow Depth 0 in
UV 0 out of 12
Pollen 1.70 out of 12
Air Quality Not available.
Flu Activity No Activity
METAR KBIL 241453Z 18003KT 10SM BKN100 12/01 A3003 RMK AO2 SLP158 T01170011 51021

More Conditions Fewer Conditions

10-Day Weather Forecast

Almanac

Astronomy

Oct. 24, 2014 Rise Set
Actual Time 7:46 AM MDT 6:16 PM MDT
Civil Twilight 7:15 AM MDT 6:47 PM MDT
Nautical Twilight 6:41 AM MDT 7:21 PM MDT
Astronomical Twilight 6:06 AM MDT 7:56 PM MDT
Moon 8:30 AM MDT 6:56 PM MDT
Length of Visible Light 11h 31m
Length of Day
10h 30m
Tomorrow will be 2m 58s shorter.
New Moon, 1% of the Moon is Illuminated
Today
New Moon
Oct 30
First Quarter
Nov 6
Full
Nov 14
Last Quarter
Nov 22
New

Today's Extremes

State Highs State Lows

Community

WunderPhotos

Upload Photos

1,764,588 photos uploaded!

WunderBlogs® & News

By Dr. Jeff Masters
Director of Meteorology, Weather Underground
By Kari Strenfel
Meteorologist, Weather Underground
By Christopher C. Burt
Weather Historian, Weather Underground
October 24, 2014
October 24, 2014
October 24, 2014

Nearby

Snow Depth

Station Depth Elevation
Burnt Mountain 0 in 5880 ft
Placer Basin 0 in 8830 ft
Fisher Creek 1 in 9100 ft
Monument Peak 0 in 8850 ft
Northeast Entrance 0 in 7350 ft

Earthquake Activity

City Distance Mag. Time & Date
No recent earthquake activity has been reported nearby.
Minimum magnitude displayed is 2.5.

Coastal Water Temperatures

Place Temperature
No Stations Reporting

Nearby Weather Stations